Time;durP1;ratioP1;P1;durP2;ratioP2;P2;SDS_P1;SDS_P2;PMS_P1;PMS_P2;Temp;Humidity;BMP_temperature;BMP_pressure;BME280_temperature;BME280_humidity;BME280_pressure;Samples;Min_cycle;Max_cycle;Signal;HPM_P1;HPM_P2
2022/04/02 00:00:56;;;;;;;0.60;0.60;;;;;;;;;;5067511;28;20169;-79
2022/04/02 00:03:22;;;;;;;1.48;0.90;;;;;;;;;;5084063;28;20484;-80
2022/04/02 00:05:48;;;;;;;1.10;0.80;;;;;;;;;;5084317;28;20036;-79
2022/04/02 00:08:14;;;;;;;1.42;1.33;;;;;;;;;;5066912;28;20036;-79
2022/04/02 00:10:40;;;;;;;1.23;1.23;;;;;;;;;;5083957;28;20040;-82
2022/04/02 00:13:06;;;;;;;1.25;0.98;;;;;;;;;;5063155;28;20059;-79
2022/04/02 00:15:32;;;;;;;0.50;0.40;;;;;;;;;;5067997;28;20048;-80
2022/04/02 00:17:58;;;;;;;2.17;1.25;;;;;;;;;;5083432;28;20514;-80
2022/04/02 00:20:24;;;;;;;0.63;0.63;;;;;;;;;;5081724;28;20039;-80
2022/04/02 00:25:36;;;;;;;0.85;0.80;;;;;;;;;;5082787;28;20072;-81
2022/04/02 00:28:02;;;;;;;2.20;1.42;;;;;;;;;;5060919;28;20043;-82
2022/04/02 00:30:28;;;;;;;1.80;1.08;;;;;;;;;;5074564;28;20127;-82
2022/04/02 00:32:54;;;;;;;2.00;1.15;;;;;;;;;;5057418;28;20054;-82
2022/04/02 00:35:20;;;;;;;3.10;1.65;;;;;;;;;;5057366;28;20036;-81
2022/04/02 00:37:46;;;;;;;3.03;0.80;;;;;;;;;;5074161;28;20123;-81
2022/04/02 00:40:12;;;;;;;2.88;1.73;;;;;;;;;;5057134;28;20449;-80
2022/04/02 00:42:38;;;;;;;2.22;1.70;;;;;;;;;;5057066;28;20090;-80
2022/04/02 00:45:04;;;;;;;8.63;1.98;;;;;;;;;;5057539;28;20434;-80
2022/04/02 00:47:30;;;;;;;2.20;1.33;;;;;;;;;;5073857;28;20524;-80
2022/04/02 00:49:57;;;;;;;1.45;1.17;;;;;;;;;;5057206;28;20040;-81
2022/04/02 00:52:25;;;;;;;2.90;1.45;;;;;;;;;;5057424;28;20039;-81
2022/04/02 00:54:52;;;;;;;2.83;1.85;;;;;;;;;;5057179;28;20040;-81
2022/04/02 00:57:18;;;;;;;3.55;1.67;;;;;;;;;;5057285;28;20036;-81
2022/04/02 00:59:44;;;;;;;5.05;1.83;;;;;;;;;;5056990;28;20094;-81
2022/04/02 01:02:10;;;;;;;1.95;1.60;;;;;;;;;;5056886;28;20044;-79
2022/04/02 01:04:36;;;;;;;2.63;1.77;;;;;;;;;;5074027;28;20093;-80
2022/04/02 01:07:03;;;;;;;3.15;2.05;;;;;;;;;;5073541;28;20036;-81
2022/04/02 01:09:29;;;;;;;3.78;1.65;;;;;;;;;;5073496;28;20040;-80
2022/04/02 01:11:56;;;;;;;2.95;1.15;;;;;;;;;;5056877;28;20048;-81
2022/04/02 01:14:22;;;;;;;3.35;1.63;;;;;;;;;;5056773;28;20090;-80
2022/04/02 01:16:49;;;;;;;4.93;1.98;;;;;;;;;;5073590;28;20123;-80
2022/04/02 01:19:15;;;;;;;2.53;1.67;;;;;;;;;;5056737;28;20036;-80
2022/04/02 01:21:47;;;;;;;2.88;1.88;;;;;;;;;;5056866;28;20514;-79
2022/04/02 01:24:13;;;;;;;3.15;2.20;;;;;;;;;;5056781;28;20032;-79
2022/04/02 01:26:39;;;;;;;3.97;1.73;;;;;;;;;;5073571;28;20484;-79
2022/04/02 01:29:06;;;;;;;2.67;2.05;;;;;;;;;;5073418;28;20047;-80
2022/04/02 01:31:32;;;;;;;3.95;2.05;;;;;;;;;;5073494;28;20494;-80
2022/04/02 01:33:58;;;;;;;3.10;1.85;;;;;;;;;;5056615;28;20481;-80
2022/04/02 01:36:24;;;;;;;1.73;1.00;;;;;;;;;;5073807;28;20047;-79
2022/04/02 01:38:51;;;;;;;2.15;1.50;;;;;;;;;;5056517;28;20036;-79
2022/04/02 01:41:17;;;;;;;2.63;1.55;;;;;;;;;;5056506;28;20092;-79
2022/04/02 01:43:44;;;;;;;1.65;1.02;;;;;;;;;;5073343;28;20036;-79
2022/04/02 01:46:10;;;;;;;6.30;3.33;;;;;;;;;;5073045;28;20072;-78
2022/04/02 01:48:36;;;;;;;6.15;2.72;;;;;;;;;;5073111;28;20044;-79
2022/04/02 01:51:02;;;;;;;4.43;1.73;;;;;;;;;;5073320;28;20595;-78
2022/04/02 01:53:29;;;;;;;2.88;1.80;;;;;;;;;;5073308;28;20507;-79
2022/04/02 01:55:55;;;;;;;3.20;1.80;;;;;;;;;;5056566;28;20048;-80
2022/04/02 01:58:21;;;;;;;3.63;1.80;;;;;;;;;;5074745;28;20126;-79
2022/04/02 02:00:47;;;;;;;3.47;1.67;;;;;;;;;;5076501;28;20458;-80
2022/04/02 02:03:13;;;;;;;2.75;1.25;;;;;;;;;;5093407;28;20044;-80
2022/04/02 02:05:40;;;;;;;3.42;1.63;;;;;;;;;;5093388;28;20047;-78
2022/04/02 02:08:06;;;;;;;2.45;1.58;;;;;;;;;;5076647;28;20126;-81
2022/04/02 02:10:32;;;;;;;2.13;1.38;;;;;;;;;;5093170;28;20453;-80
2022/04/02 02:12:59;;;;;;;1.90;1.55;;;;;;;;;;5096747;28;20510;-81
2022/04/02 02:15:26;;;;;;;2.88;2.05;;;;;;;;;;5080071;28;20122;-81
2022/04/02 02:17:53;;;;;;;2.72;1.45;;;;;;;;;;5097349;28;20043;-80
2022/04/02 02:20:19;;;;;;;4.00;2.20;;;;;;;;;;5080034;28;20035;-81
2022/04/02 02:22:46;;;;;;;2.92;2.08;;;;;;;;;;5080175;28;20042;-80
2022/04/02 02:25:14;;;;;;;6.53;1.73;;;;;;;;;;5080118;28;20035;-81
2022/04/02 02:27:41;;;;;;;3.78;1.80;;;;;;;;;;5079819;28;20043;-80
2022/04/02 02:30:08;;;;;;;2.85;1.67;;;;;;;;;;5096909;28;20047;-81
2022/04/02 02:32:37;;;;;;;3.95;1.27;;;;;;;;;;5079798;28;20088;-82
2022/04/02 02:38:02;;;;;;;1.75;1.08;;;;;;;;;;5096503;28;20499;-81
2022/04/02 02:40:28;;;;;;;2.45;1.38;;;;;;;;;;5079832;28;20031;-83
2022/04/02 02:42:54;;;;;;;3.85;2.00;;;;;;;;;;5079382;28;20056;-82
2022/04/02 02:45:20;;;;;;;3.65;1.92;;;;;;;;;;5079640;28;20062;-80
2022/04/02 02:47:46;;;;;;;6.80;1.48;;;;;;;;;;5079602;28;20043;-82
2022/04/02 02:50:12;;;;;;;3.13;1.90;;;;;;;;;;5079887;28;20155;-82
2022/04/02 02:52:38;;;;;;;3.25;2.03;;;;;;;;;;5079885;28;20096;-81
2022/04/02 02:55:04;;;;;;;2.28;1.20;;;;;;;;;;5096466;28;20048;-81
2022/04/02 02:57:37;;;;;;;2.47;1.45;;;;;;;;;;5096388;28;20093;-79
2022/04/02 03:00:03;;;;;;;1.42;1.10;;;;;;;;;;5079248;28;20075;-81
2022/04/02 03:02:29;;;;;;;2.75;1.20;;;;;;;;;;5096375;28;20103;-81
2022/04/02 03:04:55;;;;;;;2.47;1.05;;;;;;;;;;5096308;28;20074;-80
2022/04/02 03:07:21;;;;;;;3.15;1.70;;;;;;;;;;5079410;28;20044;-80
2022/04/02 03:09:47;;;;;;;5.57;1.58;;;;;;;;;;5079423;28;20036;-80
2022/04/02 03:12:13;;;;;;;1.75;1.55;;;;;;;;;;5095884;28;20564;-79
2022/04/02 03:14:39;;;;;;;2.65;1.48;;;;;;;;;;5078941;28;20399;-80
2022/04/02 03:17:05;;;;;;;2.90;1.95;;;;;;;;;;5078974;28;20035;-80
2022/04/02 03:19:31;;;;;;;5.13;1.95;;;;;;;;;;5078779;28;20039;-78
2022/04/02 03:21:57;;;;;;;3.00;1.55;;;;;;;;;;5096217;28;20040;-79
2022/04/02 03:24:23;;;;;;;4.00;1.95;;;;;;;;;;5078209;28;20040;-80
2022/04/02 03:26:49;;;;;;;2.00;1.63;;;;;;;;;;5078752;28;20036;-80
2022/04/02 03:29:15;;;;;;;10.52;2.03;;;;;;;;;;5095598;28;20051;-79
2022/04/02 03:31:41;;;;;;;3.60;2.03;;;;;;;;;;5078817;28;20036;-77
2022/04/02 03:34:08;;;;;;;2.72;1.35;;;;;;;;;;5078572;28;20062;-80
2022/04/02 03:36:34;;;;;;;6.55;2.45;;;;;;;;;;5095602;28;20490;-80
2022/04/02 03:39:00;;;;;;;9.20;1.58;;;;;;;;;;5078524;28;20475;-79
2022/04/02 03:41:26;;;;;;;4.70;2.35;;;;;;;;;;5086923;28;20106;-80
2022/04/02 03:43:53;;;;;;;2.22;1.67;;;;;;;;;;5071660;28;20040;-78
2022/04/02 03:49:04;;;;;;;3.92;1.48;;;;;;;;;;5071721;28;20044;-79
2022/04/02 03:51:30;;;;;;;4.05;2.42;;;;;;;;;;5055191;28;20044;-79
2022/04/02 03:53:58;;;;;;;4.40;1.77;;;;;;;;;;5071776;28;20131;-79
2022/04/02 03:56:24;;;;;;;3.90;1.50;;;;;;;;;;5054880;28;20498;-79
2022/04/02 03:58:50;;;;;;;4.82;2.10;;;;;;;;;;5054753;28;20404;-79
2022/04/02 04:01:16;;;;;;;2.92;1.67;;;;;;;;;;5071378;28;20037;-79
2022/04/02 04:03:42;;;;;;;6.05;1.30;;;;;;;;;;5071467;28;20097;-78
2022/04/02 04:06:09;;;;;;;4.47;1.33;;;;;;;;;;5071699;28;20040;-79
2022/04/02 04:08:40;;;;;;;5.22;1.95;;;;;;;;;;5054735;28;20051;-80
2022/04/02 04:11:06;;;;;;;1.02;0.90;;;;;;;;;;5054532;28;20083;-80
2022/04/02 04:13:32;;;;;;;2.03;1.15;;;;;;;;;;5054638;28;20056;-79
2022/04/02 04:16:00;;;;;;;2.97;1.52;;;;;;;;;;5054735;28;20529;-79
2022/04/02 04:18:27;;;;;;;6.13;1.98;;;;;;;;;;5071132;28;20067;-80
2022/04/02 04:20:54;;;;;;;4.07;1.27;;;;;;;;;;5054757;28;20029;-79
2022/04/02 04:23:22;;;;;;;5.72;1.55;;;;;;;;;;5054824;28;20041;-80
2022/04/02 04:25:48;;;;;;;3.15;1.92;;;;;;;;;;5054312;28;20043;-80
2022/04/02 04:28:13;;;;;;;2.40;1.80;;;;;;;;;;5054633;28;20119;-80
2022/04/02 04:30:39;;;;;;;3.08;1.08;;;;;;;;;;5054455;28;20044;-80
2022/04/02 04:33:06;;;;;;;1.45;0.65;;;;;;;;;;5070960;28;20102;-80
2022/04/02 04:35:32;;;;;;;0.65;0.63;;;;;;;;;;5069985;28;20089;-80
2022/04/02 04:37:58;;;;;;;5.68;1.48;;;;;;;;;;5053998;28;20110;-81
2022/04/02 04:40:23;;;;;;;1.00;0.70;;;;;;;;;;5053818;28;20044;-80
2022/04/02 04:42:49;;;;;;;1.88;1.42;;;;;;;;;;5070272;28;20556;-81
2022/04/02 04:45:15;;;;;;;1.63;1.25;;;;;;;;;;5053670;28;20043;-80
2022/04/02 04:47:45;;;;;;;0.63;0.63;;;;;;;;;;5054237;28;20396;-80
2022/04/02 04:50:11;;;;;;;3.25;1.35;;;;;;;;;;5054000;28;20044;-80
2022/04/02 04:52:37;;;;;;;2.08;0.85;;;;;;;;;;5071017;28;20102;-80
2022/04/02 04:55:04;;;;;;;4.25;1.55;;;;;;;;;;5070556;28;20086;-79
2022/04/02 04:57:30;;;;;;;2.45;1.63;;;;;;;;;;5070672;28;20044;-81
2022/04/02 04:59:56;;;;;;;2.85;1.40;;;;;;;;;;5053712;28;20552;-80
2022/04/02 05:02:22;;;;;;;1.42;1.30;;;;;;;;;;5053774;28;20041;-78
2022/04/02 05:04:49;;;;;;;1.38;1.25;;;;;;;;;;5070632;28;20041;-81
2022/04/02 05:07:15;;;;;;;2.75;1.88;;;;;;;;;;5053580;28;20048;-79
2022/04/02 05:09:45;;;;;;;8.13;2.13;;;;;;;;;;5053737;28;20708;-80
2022/04/02 05:12:12;;;;;;;13.15;2.00;;;;;;;;;;5053882;28;20044;-79
2022/04/02 05:14:38;;;;;;;5.53;1.75;;;;;;;;;;5054120;28;20389;-79
2022/04/02 05:17:04;;;;;;;2.65;1.30;;;;;;;;;;5070615;28;20047;-78
2022/04/02 05:19:30;;;;;;;2.38;1.23;;;;;;;;;;5053436;28;20055;-80
2022/04/02 05:21:56;;;;;;;3.30;1.75;;;;;;;;;;5053324;28;20526;-79
2022/04/02 05:24:22;;;;;;;2.97;1.98;;;;;;;;;;5053366;28;20127;-80
2022/04/02 05:26:49;;;;;;;1.90;1.48;;;;;;;;;;5053383;28;20403;-80
2022/04/02 05:29:16;;;;;;;3.83;2.03;;;;;;;;;;5070116;28;20052;-79
2022/04/02 05:31:42;;;;;;;2.67;1.13;;;;;;;;;;5053595;28;20492;-81
2022/04/02 05:34:09;;;;;;;0.65;0.65;;;;;;;;;;5070107;28;20040;-81
2022/04/02 05:36:35;;;;;;;1.27;1.10;;;;;;;;;;5070119;28;20044;-81
2022/04/02 05:39:01;;;;;;;1.80;1.45;;;;;;;;;;5053286;28;20074;-81
2022/04/02 05:41:28;;;;;;;3.25;1.90;;;;;;;;;;5078096;28;20051;-81
2022/04/02 05:43:54;;;;;;;6.57;2.90;;;;;;;;;;5093324;28;20074;-81
2022/04/02 05:46:21;;;;;;;4.18;2.65;;;;;;;;;;5077464;28;20124;-80
2022/04/02 05:48:47;;;;;;;1.92;1.50;;;;;;;;;;5098125;28;20055;-79
2022/04/02 05:51:13;;;;;;;3.80;1.65;;;;;;;;;;5097943;28;20403;-79
2022/04/02 05:53:39;;;;;;;3.03;1.90;;;;;;;;;;5094129;28;20050;-80
2022/04/02 05:56:06;;;;;;;8.05;2.38;;;;;;;;;;5076904;28;20077;-80
2022/04/02 05:58:32;;;;;;;3.58;2.13;;;;;;;;;;5076438;28;20040;-79
2022/04/02 06:00:58;;;;;;;7.53;1.80;;;;;;;;;;5077207;28;20036;-79
2022/04/02 06:03:24;;;;;;;2.92;1.42;;;;;;;;;;5093863;28;20043;-78
2022/04/02 06:05:50;;;;;;;1.92;1.02;;;;;;;;;;5093829;28;20112;-80
2022/04/02 06:08:17;;;;;;;4.43;1.73;;;;;;;;;;5078212;28;20044;-80
2022/04/02 06:10:44;;;;;;;5.95;2.33;;;;;;;;;;5080858;28;20040;-80
2022/04/02 06:13:11;;;;;;;5.32;2.13;;;;;;;;;;5097382;28;20492;-79
2022/04/02 06:15:37;;;;;;;2.65;1.80;;;;;;;;;;5080379;28;20043;-79
2022/04/02 06:18:03;;;;;;;4.95;1.98;;;;;;;;;;5080198;28;20406;-80
2022/04/02 06:20:29;;;;;;;2.05;1.85;;;;;;;;;;5080422;28;20082;-80
2022/04/02 06:22:56;;;;;;;4.75;2.00;;;;;;;;;;5097706;28;20039;-80
2022/04/02 06:25:22;;;;;;;2.58;1.73;;;;;;;;;;5097939;28;20043;-80
2022/04/02 06:28:06;;;;;;;3.28;2.22;;;;;;;;;;5082366;28;20555;-81
2022/04/02 06:30:32;;;;;;;3.75;1.65;;;;;;;;;;5097325;28;20039;-79
2022/04/02 06:33:00;;;;;;;2.67;1.27;;;;;;;;;;5081162;28;20042;-80
2022/04/02 06:35:26;;;;;;;3.50;1.92;;;;;;;;;;5097024;28;20040;-80
2022/04/02 06:37:54;;;;;;;3.13;0.50;;;;;;;;;;5080634;28;20414;-80
2022/04/02 06:40:21;;;;;;;1.65;0.77;;;;;;;;;;5100734;28;20062;-79
2022/04/02 06:42:47;;;;;;;4.57;1.70;;;;;;;;;;5101158;28;20047;-82
2022/04/02 06:45:13;;;;;;;7.47;1.98;;;;;;;;;;5084320;28;20039;-80
2022/04/02 06:47:39;;;;;;;2.20;1.45;;;;;;;;;;5097514;28;20399;-81
2022/04/02 06:50:06;;;;;;;4.32;1.83;;;;;;;;;;5081025;28;20032;-79
2022/04/02 06:52:33;;;;;;;4.05;1.15;;;;;;;;;;5098863;28;20047;-83
2022/04/02 06:54:59;;;;;;;3.50;1.77;;;;;;;;;;5098919;28;20036;-81
2022/04/02 06:57:25;;;;;;;1.35;1.23;;;;;;;;;;5080684;28;20074;-80
2022/04/02 06:59:51;;;;;;;5.35;1.75;;;;;;;;;;5099667;28;20085;-83
2022/04/02 07:02:18;;;;;;;1.60;1.05;;;;;;;;;;5086965;28;20428;-81
2022/04/02 07:04:45;;;;;;;1.48;1.15;;;;;;;;;;5082106;28;20860;-83
2022/04/02 07:07:11;;;;;;;1.77;0.60;;;;;;;;;;5081483;28;20040;-82
2022/04/02 07:09:37;;;;;;;3.25;1.38;;;;;;;;;;5082653;28;20047;-83
2022/04/02 07:12:03;;;;;;;1.55;1.45;;;;;;;;;;5100191;28;20112;-82
2022/04/02 07:14:29;;;;;;;1.20;0.73;;;;;;;;;;5081585;28;20100;-82
2022/04/02 07:16:55;;;;;;;4.00;1.33;;;;;;;;;;5097275;28;20107;-76
2022/04/02 07:19:22;;;;;;;3.38;1.25;;;;;;;;;;5096917;28;20114;-74
2022/04/02 07:21:50;;;;;;;1.73;1.23;;;;;;;;;;5079582;28;20043;-79
2022/04/02 07:24:18;;;;;;;4.13;2.13;;;;;;;;;;5082206;28;20048;-76
2022/04/02 07:26:45;;;;;;;6.57;2.55;;;;;;;;;;5084254;28;20047;-78
2022/04/02 07:29:12;;;;;;;5.97;1.42;;;;;;;;;;5100219;28;20402;-79
2022/04/02 07:31:41;;;;;;;3.08;1.65;;;;;;;;;;5098050;28;20167;-76
2022/04/02 07:34:08;;;;;;;3.53;0.98;;;;;;;;;;5079443;28;20047;-72
2022/04/02 07:36:46;;;;;;;13.05;2.97;;;;;;;;;;5098505;28;20144;-76
2022/04/02 07:39:12;;;;;;;4.43;1.83;;;;;;;;;;5098972;28;20043;-80
2022/04/02 07:42:01;;;;;;;1.63;1.30;;;;;;;;;;5098433;28;20476;-76
2022/04/02 07:44:35;;;;;;;1.25;0.90;;;;;;;;;;5096255;28;20044;-79
2022/04/02 07:47:02;;;;;;;4.68;1.25;;;;;;;;;;5082220;28;20042;-81
2022/04/02 07:49:29;;;;;;;4.82;4.43;;;;;;;;;;5078749;28;20084;-77
2022/04/02 07:51:57;;;;;;;2.08;0.95;;;;;;;;;;5080047;28;20035;-79
2022/04/02 07:54:27;;;;;;;2.80;1.88;;;;;;;;;;5097879;28;20449;-73
2022/04/02 07:57:03;;;;;;;2.95;2.28;;;;;;;;;;5098062;28;20088;-79
2022/04/02 07:59:34;;;;;;;6.72;1.85;;;;;;;;;;5096000;28;20099;-77
2022/04/02 08:02:01;;;;;;;3.90;1.90;;;;;;;;;;5078087;28;20483;-74
2022/04/02 08:04:28;;;;;;;2.92;1.90;;;;;;;;;;5078149;28;20169;-74
2022/04/02 08:06:55;;;;;;;4.13;1.27;;;;;;;;;;5095036;28;20087;-76
2022/04/02 08:09:21;;;;;;;1.33;1.23;;;;;;;;;;5078590;28;20043;-74
2022/04/02 08:11:52;;;;;;;2.80;1.27;;;;;;;;;;5094999;28;20153;-77
2022/04/02 08:14:18;;;;;;;1.75;1.35;;;;;;;;;;5080166;28;20043;-77
2022/04/02 08:16:44;;;;;;;3.97;1.80;;;;;;;;;;5079248;28;20039;-76
2022/04/02 08:19:10;;;;;;;1.13;0.75;;;;;;;;;;5095860;28;20399;-76
2022/04/02 08:21:37;;;;;;;2.17;0.82;;;;;;;;;;5078651;28;20037;-79
2022/04/02 08:24:03;;;;;;;0.68;0.50;;;;;;;;;;5096558;28;20043;-78
2022/04/02 08:26:29;;;;;;;3.35;1.20;;;;;;;;;;5079090;28;20039;-70
2022/04/02 08:29:15;;;;;;;3.55;1.90;;;;;;;;;;5076887;28;20092;-78
2022/04/02 08:31:44;;;;;;;1.73;1.40;;;;;;;;;;5057884;28;20063;-77
2022/04/02 08:34:10;;;;;;;2.08;1.40;;;;;;;;;;5058099;28;20054;-76
2022/04/02 08:36:45;;;;;;;1.35;1.25;;;;;;;;;;5057449;28;20044;-78
2022/04/02 08:39:22;;;;;;;1.90;1.27;;;;;;;;;;5092249;28;20048;-76
2022/04/02 08:42:01;;;;;;;2.67;1.70;;;;;;;;;;5057617;28;20543;-76
2022/04/02 08:44:45;;;;;;;4.13;1.20;;;;;;;;;;5057210;28;20510;-73
2022/04/02 08:47:12;;;;;;;3.65;1.40;;;;;;;;;;5074048;28;20561;-76
2022/04/02 08:50:04;;;;;;;1.70;1.40;;;;;;;;;;5057002;28;20407;-73
2022/04/02 08:52:46;;;;;;;2.67;0.93;;;;;;;;;;5058523;28;20046;-76
2022/04/02 08:55:15;;;;;;;2.20;1.27;;;;;;;;;;5057662;28;20407;-73
2022/04/02 08:57:42;;;;;;;4.13;0.80;;;;;;;;;;5057114;28;20036;-77
2022/04/02 09:00:09;;;;;;;2.75;1.20;;;;;;;;;;5074038;28;20105;-73
2022/04/02 09:02:35;;;;;;;2.38;1.10;;;;;;;;;;5057071;28;20074;-73
2022/04/02 09:05:21;;;;;;;4.70;1.35;;;;;;;;;;5073830;28;20462;-73
2022/04/02 09:08:00;;;;;;;4.07;1.20;;;;;;;;;;5057549;28;20460;-76
2022/04/02 09:10:36;;;;;;;3.35;1.27;;;;;;;;;;5073351;28;20059;-74
2022/04/02 09:13:28;;;;;;;7.78;1.48;;;;;;;;;;5057206;28;20040;-79
2022/04/02 09:16:02;;;;;;;1.52;1.25;;;;;;;;;;5071597;28;20056;-72
2022/04/02 09:19:00;;;;;;;2.65;0.90;;;;;;;;;;5057229;28;20048;-75
2022/04/02 09:21:45;;;;;;;2.13;1.33;;;;;;;;;;5056274;28;20064;-73
2022/04/02 09:24:21;;;;;;;1.25;1.15;;;;;;;;;;5073583;28;20028;-72
2022/04/02 09:27:06;;;;;;;1.15;0.90;;;;;;;;;;5057008;28;20540;-75
2022/04/02 09:29:51;;;;;;;1.27;1.00;;;;;;;;;;5073596;28;20087;-71
2022/04/02 09:32:20;;;;;;;1.70;1.08;;;;;;;;;;5056536;28;20048;-74
2022/04/02 09:35:18;;;;;;;0.93;0.55;;;;;;;;;;5073586;28;20044;-73
2022/04/02 09:38:00;;;;;;;0.80;0.70;;;;;;;;;;5023957;28;20066;-74
2022/04/02 09:40:36;;;;;;;1.60;0.85;;;;;;;;;;5057157;28;20059;-77
2022/04/02 09:43:09;;;;;;;2.33;1.33;;;;;;;;;;5056795;28;20109;-72
2022/04/02 09:45:43;;;;;;;1.42;0.60;;;;;;;;;;5057035;28;20036;-75
2022/04/02 09:48:12;;;;;;;5.20;1.30;;;;;;;;;;5073422;28;20044;-72
2022/04/02 09:50:38;;;;;;;0.70;0.70;;;;;;;;;;5073408;28;20040;-73
2022/04/02 09:53:13;;;;;;;0.50;0.50;;;;;;;;;;5056426;28;20042;-72
2022/04/02 09:55:51;;;;;;;2.15;1.02;;;;;;;;;;5056660;28;20135;-73
2022/04/02 09:58:36;;;;;;;1.55;1.13;;;;;;;;;;5073380;28;20496;-74
2022/04/02 10:01:03;;;;;;;3.25;1.33;;;;;;;;;;5056648;28;20084;-71
2022/04/02 10:03:33;;;;;;;1.48;1.15;;;;;;;;;;5073319;28;20089;-76
2022/04/02 10:06:08;;;;;;;1.55;1.00;;;;;;;;;;5056839;28;20123;-76
2022/04/02 10:08:49;;;;;;;1.15;0.77;;;;;;;;;;5058162;28;20426;-79
2022/04/02 10:11:18;;;;;;;3.53;0.82;;;;;;;;;;5074483;28;20040;-78
2022/04/02 10:13:48;;;;;;;1.27;1.08;;;;;;;;;;5073861;28;20062;-80
2022/04/02 10:16:15;;;;;;;0.88;0.65;;;;;;;;;;5074024;28;20398;-78
2022/04/02 10:18:43;;;;;;;0.50;0.50;;;;;;;;;;5056747;28;20044;-77
2022/04/02 10:21:09;;;;;;;2.67;1.63;;;;;;;;;;5057782;28;20036;-77
2022/04/02 10:23:42;;;;;;;1.10;1.00;;;;;;;;;;5073791;28;20082;-80
2022/04/02 10:26:08;;;;;;;1.00;0.82;;;;;;;;;;5073075;28;20127;-75
2022/04/02 10:28:48;;;;;;;2.72;1.10;;;;;;;;;;5056373;28;20523;-74
2022/04/02 10:31:19;;;;;;;1.42;0.77;;;;;;;;;;5073388;28;20122;-74
2022/04/02 10:33:47;;;;;;;1.52;1.08;;;;;;;;;;5074889;28;20048;-72
2022/04/02 10:36:13;;;;;;;0.70;0.70;;;;;;;;;;5059918;28;20052;-72
2022/04/02 10:38:40;;;;;;;1.10;0.70;;;;;;;;;;5076373;28;20495;-74
2022/04/02 10:41:16;;;;;;;1.73;0.93;;;;;;;;;;5076622;28;20043;-71
2022/04/02 10:43:59;;;;;;;1.77;1.25;;;;;;;;;;5059582;28;20058;-71
2022/04/02 10:46:26;;;;;;;0.98;0.85;;;;;;;;;;5060236;28;20545;-79
2022/04/02 10:48:57;;;;;;;1.40;1.08;;;;;;;;;;5076350;28;20044;-71
2022/04/02 10:51:27;;;;;;;1.17;1.05;;;;;;;;;;5060264;28;20067;-79
2022/04/02 10:54:16;;;;;;;2.35;1.25;;;;;;;;;;5081217;28;20044;-79
2022/04/02 10:56:42;;;;;;;3.85;1.55;;;;;;;;;;5082326;28;20051;-78
2022/04/02 10:59:12;;;;;;;2.22;1.27;;;;;;;;;;5077281;28;20438;-74
2022/04/02 11:01:39;;;;;;;1.55;1.13;;;;;;;;;;5059486;28;20203;-71
2022/04/02 11:04:15;;;;;;;2.88;0.90;;;;;;;;;;5075978;28;20046;-74
2022/04/02 11:06:48;;;;;;;2.50;0.93;;;;;;;;;;5059076;28;20067;-75
2022/04/02 11:09:29;;;;;;;3.35;1.33;;;;;;;;;;5059429;28;20044;-70
2022/04/02 11:12:03;;;;;;;3.08;0.95;;;;;;;;;;5059082;28;20047;-71
2022/04/02 11:14:36;;;;;;;1.38;1.05;;;;;;;;;;5076067;28;20110;-70
2022/04/02 11:17:02;;;;;;;2.15;0.85;;;;;;;;;;5058830;28;20054;-69
2022/04/02 11:22:20;;;;;;;2.58;1.27;;;;;;;;;;5075579;28;20046;-72
2022/04/02 11:24:52;;;;;;;3.60;1.08;;;;;;;;;;5059098;28;20123;-75
2022/04/02 11:27:21;;;;;;;0.63;0.63;;;;;;;;;;5075476;28;20036;-71
2022/04/02 11:29:50;;;;;;;0.82;0.50;;;;;;;;;;5058718;28;20050;-71
2022/04/02 11:32:23;;;;;;;0.80;0.80;;;;;;;;;;5058608;28;20470;-74
2022/04/02 11:34:49;;;;;;;1.15;0.70;;;;;;;;;;5059144;28;20043;-72
2022/04/02 11:37:18;;;;;;;1.30;0.70;;;;;;;;;;5059536;28;20039;-72
2022/04/02 11:39:50;;;;;;;4.35;1.25;;;;;;;;;;5075986;28;20044;-71
2022/04/02 11:42:27;;;;;;;3.05;1.00;;;;;;;;;;5058880;28;20056;-79
2022/04/02 11:44:53;;;;;;;0.70;0.60;;;;;;;;;;5075459;28;20036;-74
2022/04/02 11:47:26;;;;;;;1.92;0.70;;;;;;;;;;5060304;28;20040;-80
2022/04/02 11:49:53;;;;;;;1.00;0.60;;;;;;;;;;5075881;28;20051;-74
2022/04/02 11:52:19;;;;;;;0.85;0.85;;;;;;;;;;5075860;28;20594;-73
2022/04/02 11:54:45;;;;;;;4.00;1.00;;;;;;;;;;5075385;28;20051;-74
2022/04/02 11:57:12;;;;;;;2.90;1.30;;;;;;;;;;5075480;28;20071;-73
2022/04/02 11:59:50;;;;;;;4.85;0.85;;;;;;;;;;5058129;28;20043;-71
2022/04/02 12:02:55;;;;;;;1.08;0.65;;;;;;;;;;5075090;28;20051;-71
2022/04/02 12:05:21;;;;;;;0.60;0.60;;;;;;;;;;4994103;28;20096;-74
2022/04/02 12:07:51;;;;;;;1.08;0.80;;;;;;;;;;4994038;28;20418;-72
2022/04/02 12:10:27;;;;;;;0.85;0.50;;;;;;;;;;5017881;28;20514;-72
2022/04/02 12:12:55;;;;;;;2.50;0.80;;;;;;;;;;5074810;28;20044;-70
2022/04/02 12:15:21;;;;;;;0.82;0.77;;;;;;;;;;5057821;28;20090;-72
2022/04/02 12:17:48;;;;;;;1.67;0.90;;;;;;;;;;5057817;28;20067;-71
2022/04/02 12:20:19;;;;;;;0.80;0.70;;;;;;;;;;5058125;28;20081;-75
2022/04/02 12:22:46;;;;;;;;;;;;;;;;;;5075019;28;20051;-73
2022/04/02 12:25:18;;;;;;;1.08;0.98;;;;;;;;;;5074450;28;20015;-76
2022/04/02 12:27:50;;;;;;;1.05;0.95;;;;;;;;;;5058068;28;20040;-76
2022/04/02 12:30:21;;;;;;;2.88;1.10;;;;;;;;;;5074267;28;20093;-70
2022/04/02 12:32:47;;;;;;;0.80;0.80;;;;;;;;;;5057739;28;20540;-73
2022/04/02 12:35:42;;;;;;;1.88;1.20;;;;;;;;;;5075600;28;20036;-74
2022/04/02 12:38:15;;;;;;;1.45;1.00;;;;;;;;;;5074155;28;20065;-71
2022/04/02 12:40:41;;;;;;;1.40;1.20;;;;;;;;;;5057202;28;20044;-72
2022/04/02 12:43:09;;;;;;;1.10;0.80;;;;;;;;;;5070694;28;20062;-76
2022/04/02 12:45:36;;;;;;;2.50;1.55;;;;;;;;;;5055198;28;20044;-78
2022/04/02 12:48:07;;;;;;;1.48;0.90;;;;;;;;;;5055505;28;20098;-78
2022/04/02 12:50:34;;;;;;;1.58;1.20;;;;;;;;;;5054330;28;20098;-70
2022/04/02 12:53:00;;;;;;;0.65;0.52;;;;;;;;;;5053941;28;20476;-74
2022/04/02 12:55:28;;;;;;;2.28;1.00;;;;;;;;;;5053420;28;20063;-74
2022/04/02 12:57:57;;;;;;;2.25;1.05;;;;;;;;;;5070167;28;20135;-75
2022/04/02 13:00:28;;;;;;;2.78;1.55;;;;;;;;;;5053928;28;20049;-76
2022/04/02 13:02:56;;;;;;;2.00;1.10;;;;;;;;;;5053991;28;20495;-77
2022/04/02 13:05:24;;;;;;;0.68;0.68;;;;;;;;;;5070355;28;20412;-71
2022/04/02 13:08:04;;;;;;;2.30;1.17;;;;;;;;;;5053961;28;20491;-73
2022/04/02 13:10:35;;;;;;;1.98;1.17;;;;;;;;;;5054051;28;20036;-78
2022/04/02 13:13:03;;;;;;;1.50;0.90;;;;;;;;;;5070462;28;20093;-72
2022/04/02 13:15:29;;;;;;;2.45;1.35;;;;;;;;;;5054171;28;20086;-75
2022/04/02 13:20:44;;;;;;;1.20;1.10;;;;;;;;;;5070040;28;20040;-71
2022/04/02 13:23:22;;;;;;;1.50;1.05;;;;;;;;;;5070552;28;20575;-70
2022/04/02 13:25:54;;;;;;;2.60;1.42;;;;;;;;;;5070212;28;20085;-73
2022/04/02 13:28:26;;;;;;;1.58;1.23;;;;;;;;;;5070426;28;20103;-70
2022/04/02 13:30:59;;;;;;;1.75;0.77;;;;;;;;;;5053253;28;20041;-73
2022/04/02 13:33:38;;;;;;;2.40;1.05;;;;;;;;;;5053648;28;20036;-75
2022/04/02 13:36:20;;;;;;;0.82;0.70;;;;;;;;;;5053606;28;20041;-74
2022/04/02 13:38:52;;;;;;;1.50;1.10;;;;;;;;;;5053899;28;20497;-72
2022/04/02 13:41:25;;;;;;;1.05;0.70;;;;;;;;;;5069629;28;20083;-72
2022/04/02 13:43:54;;;;;;;2.03;1.10;;;;;;;;;;5053742;28;20515;-75
2022/04/02 13:46:22;;;;;;;3.13;1.02;;;;;;;;;;5053701;28;20045;-76
2022/04/02 13:49:00;;;;;;;3.28;0.90;;;;;;;;;;5070093;28;20093;-78
2022/04/02 13:52:04;;;;;;;1.40;1.20;;;;;;;;;;5070015;28;20079;-74
2022/04/02 13:54:36;;;;;;;0.95;0.70;;;;;;;;;;4995936;28;20041;-71
2022/04/02 13:57:06;;;;;;;2.10;0.88;;;;;;;;;;5012337;28;20215;-71
2022/04/02 13:59:52;;;;;;;2.35;1.10;;;;;;;;;;5041172;28;20456;-72
2022/04/02 14:02:29;;;;;;;1.27;1.10;;;;;;;;;;5087017;28;20041;-73
2022/04/02 14:05:01;;;;;;;1.00;0.90;;;;;;;;;;5070352;28;20472;-71
2022/04/02 14:07:29;;;;;;;3.58;1.08;;;;;;;;;;5053656;28;20091;-79
2022/04/02 14:09:58;;;;;;;2.03;1.05;;;;;;;;;;5073865;28;20047;-76
2022/04/02 14:12:38;;;;;;;0.95;0.85;;;;;;;;;;5056907;28;20042;-72
2022/04/02 14:15:13;;;;;;;0.77;0.77;;;;;;;;;;5056983;28;20048;-74
2022/04/02 14:17:44;;;;;;;1.30;1.17;;;;;;;;;;5073497;28;20036;-72
2022/04/02 14:20:14;;;;;;;2.10;1.30;;;;;;;;;;5073498;28;20115;-71
2022/04/02 14:22:52;;;;;;;0.87;0.83;;;;;;;;;;5056699;28;20048;-73
2022/04/02 14:25:25;;;;;;;0.70;0.68;;;;;;;;;;5056929;28;20048;-78
2022/04/02 14:27:51;;;;;;;1.80;0.80;;;;;;;;;;5073629;28;20124;-76
2022/04/02 14:30:39;;;;;;;2.38;0.85;;;;;;;;;;5056436;28;20094;-71
2022/04/02 14:33:09;;;;;;;1.23;0.88;;;;;;;;;;5073356;28;20043;-72
2022/04/02 14:36:02;;;;;;;6.10;1.17;;;;;;;;;;5072929;28;20081;-76
2022/04/02 14:38:39;;;;;;;1.70;1.17;;;;;;;;;;5056545;28;20048;-72
2022/04/02 14:41:09;;;;;;;1.42;0.70;;;;;;;;;;5074490;28;20048;-71
2022/04/02 14:43:56;;;;;;;1.88;1.10;;;;;;;;;;5059366;28;20072;-72
2022/04/02 14:46:34;;;;;;;1.23;1.00;;;;;;;;;;5059738;28;20089;-75
2022/04/02 14:49:13;;;;;;;3.90;1.30;;;;;;;;;;5059782;28;20130;-71
2022/04/02 14:52:02;;;;;;;1.02;0.80;;;;;;;;;;5076240;28;20097;-73
2022/04/02 14:54:43;;;;;;;2.25;0.80;;;;;;;;;;5060579;28;20126;-76
2022/04/02 14:57:09;;;;;;;;;;;;;;;;;;5060178;28;20076;-74
2022/04/02 14:59:54;;;;;;;1.15;0.80;;;;;;;;;;5076252;28;19926;-70
2022/04/02 15:02:27;;;;;;;3.25;1.25;;;;;;;;;;5076755;28;20036;-72
2022/04/02 15:05:11;;;;;;;1.25;1.00;;;;;;;;;;5059864;28;20040;-76
2022/04/02 15:07:56;;;;;;;1.10;0.80;;;;;;;;;;5076608;28;20040;-74
2022/04/02 15:10:22;;;;;;;2.17;0.90;;;;;;;;;;5060250;28;20044;-72
2022/04/02 15:12:54;;;;;;;1.40;1.05;;;;;;;;;;5076470;28;20036;-73